createdAt,value
2023-02-05T00:03:58.439Z,12.20
2023-02-05T00:08:57.562Z,11.10
2023-02-05T00:13:56.657Z,14.33
2023-02-05T00:18:58.239Z,15.33
2023-02-05T00:23:57.070Z,13.27
2023-02-05T00:28:55.813Z,12.63
2023-02-05T00:33:56.051Z,14.07
2023-02-05T00:38:55.151Z,12.93
2023-02-05T00:43:53.914Z,13.90
2023-02-05T00:48:52.645Z,11.67
2023-02-05T00:53:52.960Z,14.07
2023-02-05T00:58:51.770Z,12.67
2023-02-05T01:03:50.657Z,10.77
2023-02-05T01:08:49.589Z,11.80
2023-02-05T01:13:49.808Z,9.90
2023-02-05T01:18:48.634Z,9.40
2023-02-05T01:23:47.417Z,8.90
2023-02-05T01:28:47.195Z,8.27
2023-02-05T01:33:47.519Z,7.50
2023-02-05T01:38:46.360Z,9.60
2023-02-05T01:43:45.170Z,8.13
2023-02-05T01:48:47.910Z,7.07
2023-02-05T01:53:49.765Z,10.03
2023-02-05T01:58:53.629Z,8.17
2023-02-05T02:08:53.866Z,9.23
2023-02-05T02:13:56.352Z,10.47
2023-02-05T02:18:55.913Z,12.33
2023-02-05T02:24:13.930Z,7.00
2023-02-05T02:29:19.676Z,7.93
2023-02-05T02:34:22.236Z,5.37
2023-02-05T02:39:26.941Z,8.83
2023-02-05T02:44:34.792Z,10.60
2023-02-05T02:49:39.370Z,8.70
2023-02-05T02:54:42.472Z,8.03
2023-02-05T02:59:47.293Z,14.47
2023-02-05T03:04:53.206Z,11.37
2023-02-05T03:10:00.450Z,5.67
2023-02-05T03:15:01.266Z,7.33
2023-02-05T03:20:05.168Z,3.97
2023-02-05T03:25:06.438Z,7.38
2023-02-05T03:30:10.293Z,4.33
2023-02-05T03:35:22.266Z,6.47
2023-02-05T03:45:41.004Z,6.33
2023-02-05T03:50:45.169Z,5.03
2023-02-05T03:55:49.264Z,5.03
2023-02-05T04:00:50.369Z,6.77
2023-02-05T04:05:50.095Z,4.67
2023-02-05T04:10:50.912Z,4.07
2023-02-05T04:15:52.274Z,5.30
2023-02-05T04:20:51.250Z,9.70
2023-02-05T04:25:55.290Z,5.68
2023-02-05T04:31:03.147Z,5.17
2023-02-05T04:36:05.743Z,5.25
2023-02-05T04:41:05.030Z,6.00
2023-02-05T04:46:08.836Z,5.83
2023-02-05T04:51:08.952Z,5.35
2023-02-05T04:56:09.256Z,5.23
2023-02-05T05:01:15.682Z,3.53
2023-02-05T05:06:15.522Z,5.87
2023-02-05T05:11:16.098Z,4.87
2023-02-05T05:16:16.697Z,6.50
2023-02-05T05:21:15.592Z,5.80
2023-02-05T05:26:14.772Z,6.50
2023-02-05T05:31:19.799Z,6.70
2023-02-05T05:36:19.217Z,6.03
2023-02-05T05:41:39.264Z,7.30
2023-02-05T05:46:41.252Z,8.60
2023-02-05T05:51:40.206Z,8.60
2023-02-05T05:56:39.181Z,5.63
2023-02-05T06:01:39.690Z,8.57
2023-02-05T06:06:38.468Z,6.07
2023-02-05T06:11:37.246Z,4.70
2023-02-05T06:16:36.154Z,6.77
2023-02-05T06:21:36.541Z,6.27
2023-02-05T06:26:35.331Z,4.60
2023-02-05T06:31:34.374Z,7.23
2023-02-05T06:36:33.299Z,6.17
2023-02-05T06:41:33.472Z,5.47
2023-02-05T06:46:32.829Z,5.47
2023-02-05T06:51:31.839Z,4.83
2023-02-05T06:56:30.711Z,6.80
2023-02-05T07:01:31.196Z,7.77
2023-02-05T07:06:30.308Z,7.90
2023-02-05T07:11:29.220Z,8.80
2023-02-05T07:16:28.262Z,8.37
2023-02-05T07:21:28.633Z,5.80
2023-02-05T07:26:27.517Z,10.13
2023-02-05T07:31:27.086Z,6.83
2023-02-05T07:36:26.079Z,7.50
2023-02-05T07:41:29.649Z,8.40
2023-02-05T07:46:28.577Z,4.47
2023-02-05T07:51:27.770Z,7.57
2023-02-05T07:56:28.907Z,12.80
2023-02-05T08:01:29.079Z,8.73
2023-02-05T08:06:30.822Z,7.67
2023-02-05T08:11:32.605Z,7.63
2023-02-05T08:16:37.025Z,6.60
2023-02-05T08:21:36.506Z,9.23
2023-02-05T08:26:36.821Z,8.63
2023-02-05T08:31:35.995Z,7.27
2023-02-05T08:36:35.009Z,9.73
2023-02-05T08:41:33.952Z,9.93
2023-02-05T08:46:48.898Z,7.90
2023-02-05T08:51:49.482Z,4.87
2023-02-05T08:56:51.318Z,6.53
2023-02-05T09:01:52.507Z,9.10
2023-02-05T09:06:51.423Z,8.60
2023-02-05T09:11:50.661Z,8.43
2023-02-05T09:16:49.763Z,7.90
2023-02-05T09:21:50.049Z,10.37
2023-02-05T09:26:49.592Z,7.47
2023-02-05T09:31:49.109Z,5.87
2023-02-05T09:36:49.738Z,8.10
2023-02-05T09:41:57.103Z,7.68
2023-02-05T09:47:05.802Z,6.65
2023-02-05T09:52:13.621Z,14.13
2023-02-05T09:57:17.643Z,6.55
2023-02-05T10:02:26.444Z,13.13
2023-02-05T10:07:38.610Z,8.05
2023-02-05T10:12:49.591Z,5.90
2023-02-05T10:18:01.450Z,8.35
2023-02-05T10:23:15.351Z,7.80
2023-02-05T10:33:42.348Z,6.13
2023-02-05T10:38:45.258Z,8.80
2023-02-05T10:43:50.586Z,5.22
2023-02-05T10:48:55.764Z,12.25
2023-02-05T10:53:56.319Z,6.63
2023-02-05T10:58:56.866Z,6.80
2023-02-05T11:04:01.728Z,10.13
2023-02-05T11:09:30.252Z,8.85
2023-02-05T11:14:42.145Z,15.52
2023-02-05T11:19:41.443Z,16.85
2023-02-05T11:24:42.771Z,6.80
2023-02-05T11:29:42.104Z,10.10
2023-02-05T11:34:41.132Z,10.60
2023-02-05T11:39:42.496Z,13.20
2023-02-05T11:44:51.397Z,8.55
2023-02-05T11:49:52.523Z,9.85
2023-02-05T11:54:53.198Z,13.15
2023-02-05T11:59:57.590Z,8.35
2023-02-05T12:05:02.305Z,11.80
2023-02-05T12:10:03.227Z,8.30
2023-02-05T12:15:11.906Z,8.32
2023-02-05T12:20:22.783Z,13.25
2023-02-05T12:25:30.004Z,9.68
2023-02-05T12:31:00.313Z,9.40
2023-02-05T12:36:12.608Z,10.85
2023-02-05T12:41:24.819Z,12.40
2023-02-05T12:46:45.278Z,7.72
2023-02-05T12:51:54.235Z,20.23
2023-02-05T12:57:02.747Z,23.10
2023-02-05T13:02:12.083Z,16.00
2023-02-05T13:07:20.046Z,20.73
2023-02-05T13:12:28.348Z,13.15
2023-02-05T13:17:32.888Z,12.10
2023-02-05T13:23:08.547Z,14.75
2023-02-05T13:28:42.731Z,17.10
2023-02-05T13:33:41.946Z,16.83
2023-02-05T13:38:57.571Z,11.52
2023-02-05T13:44:17.656Z,10.10
2023-02-05T13:49:44.137Z,12.93
2023-02-05T13:55:08.748Z,16.13
2023-02-05T14:00:15.573Z,10.30
2023-02-05T14:05:16.198Z,10.30
2023-02-05T14:10:28.300Z,14.00
2023-02-05T14:15:41.068Z,11.67
2023-02-05T14:20:44.738Z,12.63
2023-02-05T14:26:11.927Z,12.32
2023-02-05T14:31:59.095Z,9.90
2023-02-05T14:36:58.508Z,12.17
2023-02-05T14:41:59.668Z,10.13
2023-02-05T14:47:20.714Z,12.00
2023-02-05T14:52:36.722Z,10.83
2023-02-05T14:57:43.841Z,12.87
2023-02-05T15:03:21.756Z,14.00
2023-02-05T15:08:30.608Z,11.37
2023-02-05T15:13:29.783Z,8.97
2023-02-05T15:18:31.495Z,10.67
2023-02-05T15:23:38.795Z,11.03
2023-02-05T15:28:42.218Z,11.53
2023-02-05T15:33:50.162Z,14.95
2023-02-05T15:38:58.100Z,15.43
2023-02-05T15:44:03.162Z,14.43
2023-02-05T15:49:09.967Z,11.80
2023-02-05T15:54:21.985Z,9.37
2023-02-05T15:59:27.231Z,11.40
2023-02-05T16:04:31.460Z,14.65
2023-02-05T16:09:34.902Z,15.80
2023-02-05T16:14:38.618Z,13.25
2023-02-05T16:19:54.436Z,14.43
2023-02-05T16:25:21.941Z,13.73
2023-02-05T16:30:32.060Z,16.17
2023-02-05T16:35:52.113Z,15.27
2023-02-05T16:40:57.359Z,12.63
2023-02-05T16:46:26.434Z,14.97
2023-02-05T16:51:48.362Z,13.93
2023-02-05T16:56:56.087Z,16.67
2023-02-05T17:01:55.643Z,12.53
2023-02-05T17:06:58.306Z,15.17
2023-02-05T17:12:43.081Z,18.93
2023-02-05T17:17:50.673Z,14.13
2023-02-05T17:23:14.945Z,16.40
2023-02-05T17:28:21.706Z,19.17
2023-02-05T17:33:23.165Z,20.00
2023-02-05T17:38:24.524Z,16.77
2023-02-05T17:43:25.687Z,21.63
2023-02-05T17:48:25.826Z,16.97
2023-02-05T17:53:33.668Z,20.53
2023-02-05T17:58:39.743Z,14.90
2023-02-05T18:03:39.951Z,13.68
2023-02-05T18:08:40.394Z,16.43
2023-02-05T18:13:48.860Z,19.05
2023-02-05T18:18:52.194Z,19.00
2023-02-05T18:23:53.739Z,14.45
2023-02-05T18:28:55.102Z,13.23
2023-02-05T18:33:54.613Z,15.53
2023-02-05T18:38:53.998Z,13.87
2023-02-05T18:44:00.620Z,16.37
2023-02-05T18:49:16.271Z,18.50
2023-02-05T18:54:45.816Z,19.53
2023-02-05T18:59:48.542Z,20.73
2023-02-05T19:04:52.272Z,19.47
2023-02-05T19:14:57.110Z,22.33
2023-02-05T19:20:00.185Z,17.13
2023-02-05T19:25:01.360Z,14.90
2023-02-05T19:30:04.928Z,16.00
2023-02-05T19:35:06.237Z,18.05
2023-02-05T19:40:06.761Z,23.07
2023-02-05T19:45:08.020Z,16.93
2023-02-05T19:50:07.211Z,21.93
2023-02-05T19:55:06.586Z,16.80
2023-02-05T20:00:08.083Z,17.87
2023-02-05T20:05:11.210Z,18.97
2023-02-05T20:10:10.404Z,22.33
2023-02-05T20:15:11.886Z,29.37
2023-02-05T20:20:24.892Z,20.27
2023-02-05T20:25:27.055Z,14.30
2023-02-05T20:30:45.151Z,19.83
2023-02-05T20:35:43.972Z,14.43
2023-02-05T20:40:42.796Z,40.60
2023-02-05T20:45:43.008Z,19.83
2023-02-05T20:50:41.798Z,18.67
2023-02-05T20:55:42.671Z,19.53
2023-02-05T21:00:42.980Z,37.47
2023-02-05T21:05:41.943Z,28.80
2023-02-05T21:10:40.889Z,31.60
2023-02-05T21:15:39.964Z,16.27
2023-02-05T21:20:40.274Z,20.27
2023-02-05T21:25:39.020Z,14.23
2023-02-05T21:30:38.354Z,27.03
2023-02-05T21:35:40.016Z,14.37
2023-02-05T21:40:39.304Z,13.00
2023-02-05T21:45:38.081Z,14.23
2023-02-05T21:50:40.855Z,14.60
2023-02-05T21:55:39.819Z,13.07
2023-02-05T22:00:38.621Z,14.20
2023-02-05T22:05:37.463Z,20.00
2023-02-05T22:10:37.589Z,19.07
2023-02-05T22:15:36.550Z,15.00
2023-02-05T22:20:35.651Z,15.80
2023-02-05T22:25:34.567Z,15.70
2023-02-05T22:30:35.344Z,15.80
2023-02-05T22:35:34.978Z,15.93
2023-02-05T22:40:34.487Z,12.33
2023-02-05T22:45:34.984Z,11.53
2023-02-05T22:50:37.946Z,10.63
2023-02-05T22:55:37.538Z,11.73
2023-02-05T23:00:37.792Z,13.40
2023-02-05T23:05:36.999Z,18.10
2023-02-05T23:10:35.918Z,14.83
2023-02-05T23:15:37.975Z,12.77
2023-02-05T23:20:36.703Z,13.10
2023-02-05T23:25:37.590Z,29.77
2023-02-05T23:30:38.137Z,18.40
2023-02-05T23:35:37.355Z,14.93
2023-02-05T23:40:36.206Z,10.80
2023-02-05T23:45:35.200Z,14.53
2023-02-05T23:50:36.175Z,10.60
2023-02-05T23:55:39.844Z,7.90
